Ambler, Alaska
Current Conditions -  °F | °C
As of 11:57 AM on Friday 31 Oct 2014 (Local Time) from PAGH Reporting Station
Clear Clear  
Wind Chill: -12°   Ceiling: Unl
Heat Index: -12°   Visibility: 10mi
Dew Point: -17°   Wind: 0mph
Humidity: 78%   Direction: NA
Pressure: 29.66"   Gusts: NA
Location:  67.09°N, 157.85°W
Report Text: PAGH 311957Z AUTO 00000KT 10SM CLR M24/M27 A2966 RMK AO2 SNB05E20 SLP081 P0000 T12441272 FZRANO
Loading
Personal Weather Stations






























Interactive Weather Map
Tropical Storm Tracking
New forecast layout! Learn more

10-Day Weather Forecast

Advertisements
Track Severe Weather on mobile